createdAt,value
2017-02-19T00:00:57.613Z,1016.1
2017-02-19T00:01:57.595Z,1016.15
2017-02-19T00:02:57.571Z,1016.13
2017-02-19T00:03:57.548Z,1016.09
2017-02-19T00:04:57.527Z,1016.11
2017-02-19T00:05:57.506Z,1016.09
2017-02-19T00:06:57.485Z,1016.05
2017-02-19T00:07:57.463Z,1016.07
2017-02-19T00:08:57.440Z,1016.09
2017-02-19T00:09:57.469Z,1016.12
2017-02-19T00:10:57.399Z,1016.1
2017-02-19T00:11:57.378Z,1016.09
2017-02-19T00:12:57.354Z,1016.08
2017-02-19T00:13:57.333Z,1016.05
2017-02-19T00:14:57.311Z,1016
2017-02-19T00:15:57.289Z,1016
2017-02-19T00:16:57.267Z,1016
2017-02-19T00:17:57.247Z,1015.97
2017-02-19T00:18:57.231Z,1015.92
2017-02-19T00:19:57.205Z,1015.95
2017-02-19T00:20:57.182Z,1015.9
2017-02-19T00:21:57.159Z,1015.92
2017-02-19T00:22:57.138Z,1015.86
2017-02-19T00:23:57.125Z,1015.88
2017-02-19T00:24:57.149Z,1015.87
2017-02-19T00:25:57.127Z,1015.82
2017-02-19T00:26:57.052Z,1015.82
2017-02-19T00:27:57.031Z,1015.79
2017-02-19T00:28:57.008Z,1015.8
2017-02-19T00:29:56.987Z,1015.76
2017-02-19T00:30:56.965Z,1015.76
2017-02-19T00:31:56.944Z,1015.77
2017-02-19T00:32:56.921Z,1015.78
2017-02-19T00:33:57.103Z,1015.77
2017-02-19T00:34:56.879Z,1015.76
2017-02-19T00:35:56.855Z,1015.75
2017-02-19T00:36:56.836Z,1015.74
2017-02-19T00:37:56.814Z,1015.77
2017-02-19T00:38:56.792Z,1015.77
2017-02-19T00:39:56.770Z,1015.81
2017-02-19T00:40:56.798Z,1015.76
2017-02-19T00:41:56.776Z,1015.71
2017-02-19T00:42:56.705Z,1015.73
2017-02-19T00:43:56.683Z,1015.71
2017-02-19T00:44:56.661Z,1015.69
2017-02-19T00:45:56.638Z,1015.71
2017-02-19T00:46:56.667Z,1015.69
2017-02-19T00:47:56.597Z,1015.71
2017-02-19T00:48:56.573Z,1015.7
2017-02-19T00:49:56.552Z,1015.68
2017-02-19T00:50:56.530Z,1015.68
2017-02-19T00:51:56.509Z,1015.68
2017-02-19T00:52:56.485Z,1015.65
2017-02-19T00:53:56.464Z,1015.65
2017-02-19T00:54:56.443Z,1015.65
2017-02-19T00:55:56.426Z,1015.7
2017-02-19T00:56:56.400Z,1015.74
2017-02-19T00:57:56.380Z,1015.77
2017-02-19T00:58:56.357Z,1015.75
2017-02-19T00:59:56.342Z,1015.74
2017-02-19T01:00:56.313Z,1015.7
2017-02-19T01:01:56.294Z,1015.68
2017-02-19T01:02:56.271Z,1015.66
2017-02-19T01:03:56.246Z,1015.66
2017-02-19T01:04:56.227Z,1015.68
2017-02-19T01:05:56.203Z,1015.66
2017-02-19T01:06:56.182Z,1015.63
2017-02-19T01:07:56.159Z,1015.61
2017-02-19T01:08:56.139Z,1015.59
2017-02-19T01:09:56.117Z,1015.61
2017-02-19T01:10:56.095Z,1015.6
2017-02-19T01:11:56.074Z,1015.58
2017-02-19T01:12:56.051Z,1015.57
2017-02-19T01:13:56.029Z,1015.57
2017-02-19T01:14:56.010Z,1015.55
2017-02-19T01:15:56.019Z,1015.52
2017-02-19T01:16:55.966Z,1015.5
2017-02-19T01:17:55.941Z,1015.49
2017-02-19T01:18:55.919Z,1015.49
2017-02-19T01:19:55.900Z,1015.53
2017-02-19T01:20:55.877Z,1015.51
2017-02-19T01:21:55.853Z,1015.51
2017-02-19T01:22:55.834Z,1015.47
2017-02-19T01:23:55.810Z,1015.48
2017-02-19T01:24:55.789Z,1015.48
2017-02-19T01:25:55.765Z,1015.47
2017-02-19T01:26:55.745Z,1015.47
2017-02-19T01:27:55.726Z,1015.45
2017-02-19T01:28:55.702Z,1015.45
2017-02-19T01:29:55.679Z,1015.46
2017-02-19T01:30:55.659Z,1015.41
2017-02-19T01:31:55.637Z,1015.38
2017-02-19T01:32:55.612Z,1015.38
2017-02-19T01:33:55.594Z,1015.38
2017-02-19T01:34:55.570Z,1015.36
2017-02-19T01:35:55.549Z,1015.33
2017-02-19T01:36:55.527Z,1015.27
2017-02-19T01:37:55.504Z,1015.26
2017-02-19T01:38:55.482Z,1015.27
2017-02-19T01:39:55.460Z,1015.25
2017-02-19T01:40:55.440Z,1015.26
2017-02-19T01:41:55.418Z,1015.24
2017-02-19T01:42:55.397Z,1015.23
2017-02-19T01:43:55.373Z,1015.19
2017-02-19T01:44:55.353Z,1015.24
2017-02-19T01:45:55.333Z,1015.22
2017-02-19T01:46:55.309Z,1015.16
2017-02-19T01:47:55.295Z,1015.2
2017-02-19T01:48:55.267Z,1015.2
2017-02-19T01:49:55.244Z,1015.21
2017-02-19T01:50:55.246Z,1015.2
2017-02-19T01:51:55.200Z,1015.25
2017-02-19T01:52:55.178Z,1015.23
2017-02-19T01:53:55.157Z,1015.23
2017-02-19T01:54:55.136Z,1015.2
2017-02-19T01:55:55.115Z,1015.2
2017-02-19T01:56:55.094Z,1015.19
2017-02-19T01:57:55.069Z,1015.18
2017-02-19T01:58:55.049Z,1015.19
2017-02-19T01:59:55.027Z,1015.18
2017-02-19T02:00:55.010Z,1015.15
2017-02-19T02:01:54.982Z,1015.17
2017-02-19T02:02:54.961Z,1015.19
2017-02-19T02:03:54.941Z,1015.19
2017-02-19T02:04:54.920Z,1015.18
2017-02-19T02:05:54.898Z,1015.1
2017-02-19T02:06:54.877Z,1015.07
2017-02-19T02:07:54.854Z,1015.07
2017-02-19T02:08:54.833Z,1015.05
2017-02-19T02:09:54.812Z,1015.08
2017-02-19T02:10:54.790Z,1015.04
2017-02-19T02:11:54.768Z,1015
2017-02-19T02:12:54.745Z,1015
2017-02-19T02:13:54.725Z,1014.96
2017-02-19T02:14:54.703Z,1014.93
2017-02-19T02:15:54.684Z,1014.85
2017-02-19T02:16:54.661Z,1014.8
2017-02-19T02:17:54.640Z,1014.77
2017-02-19T02:18:54.618Z,1014.81
2017-02-19T02:19:54.602Z,1014.75
2017-02-19T02:20:54.574Z,1014.74
2017-02-19T02:21:54.553Z,1014.75
2017-02-19T02:22:54.533Z,1014.74
2017-02-19T02:23:54.510Z,1014.73
2017-02-19T02:24:54.489Z,1014.73
2017-02-19T02:25:54.469Z,1014.71
2017-02-19T02:26:54.448Z,1014.7
2017-02-19T02:27:54.423Z,1014.68
2017-02-19T02:28:54.402Z,1014.66
2017-02-19T02:29:54.383Z,1014.62
2017-02-19T02:30:54.364Z,1014.63
2017-02-19T02:31:54.340Z,1014.66
2017-02-19T02:32:54.318Z,1014.63
2017-02-19T02:33:54.499Z,1014.68
2017-02-19T02:34:54.274Z,1014.65
2017-02-19T02:35:54.255Z,1014.64
2017-02-19T02:36:54.232Z,1014.63
2017-02-19T02:37:54.211Z,1014.63
2017-02-19T02:38:54.189Z,1014.64
2017-02-19T02:39:54.168Z,1014.61
2017-02-19T02:40:54.146Z,1014.64
2017-02-19T02:41:54.125Z,1014.6
2017-02-19T02:42:54.104Z,1014.58
2017-02-19T02:43:54.081Z,1014.57
2017-02-19T02:44:54.063Z,1014.47
2017-02-19T02:45:54.041Z,1014.46
2017-02-19T02:46:54.017Z,1014.46
2017-02-19T02:47:53.997Z,1014.43
2017-02-19T02:48:53.977Z,1014.39
2017-02-19T02:49:53.953Z,1014.39
2017-02-19T02:50:53.932Z,1014.39
2017-02-19T02:51:53.911Z,1014.41
2017-02-19T02:52:53.889Z,1014.43
2017-02-19T02:53:53.867Z,1014.35
2017-02-19T02:54:53.847Z,1014.39
2017-02-19T02:55:53.826Z,1014.37
2017-02-19T02:56:53.804Z,1014.38
2017-02-19T02:57:53.782Z,1014.43
2017-02-19T02:58:53.763Z,1014.38
2017-02-19T02:59:53.740Z,1014.41
2017-02-19T03:00:53.723Z,1014.39
2017-02-19T03:01:53.697Z,1014.4
2017-02-19T03:02:53.675Z,1014.33
2017-02-19T03:03:53.660Z,1014.32
2017-02-19T03:04:53.635Z,1014.32
2017-02-19T03:05:53.611Z,1014.36
2017-02-19T03:06:53.591Z,1014.32
2017-02-19T03:07:53.569Z,1014.28
2017-02-19T03:08:53.547Z,1014.31
2017-02-19T03:09:53.529Z,1014.3
2017-02-19T03:10:53.507Z,1014.27
2017-02-19T03:11:53.484Z,1014.27
2017-02-19T03:12:53.464Z,1014.21
2017-02-19T03:13:53.441Z,1014.32
2017-02-19T03:14:53.419Z,1014.27
2017-02-19T03:15:53.399Z,1014.29
2017-02-19T03:16:53.378Z,1014.3
2017-02-19T03:17:53.357Z,1014.26
2017-02-19T03:18:53.335Z,1014.27
2017-02-19T03:19:53.313Z,1014.26
2017-02-19T03:20:53.296Z,1014.27
2017-02-19T03:21:53.273Z,1014.26
2017-02-19T03:22:53.251Z,1014.27
2017-02-19T03:23:53.231Z,1014.25
2017-02-19T03:24:53.209Z,1014.26
2017-02-19T03:25:53.185Z,1014.27
2017-02-19T03:26:53.168Z,1014.25
2017-02-19T03:27:53.145Z,1014.21
2017-02-19T03:28:53.124Z,1014.24
2017-02-19T03:29:53.102Z,1014.19
2017-02-19T03:30:53.081Z,1014.23
2017-02-19T03:31:53.063Z,1014.26
2017-02-19T03:32:53.038Z,1014.24
2017-02-19T03:33:53.020Z,1014.21
2017-02-19T03:34:52.998Z,1014.25
2017-02-19T03:35:52.979Z,1014.21
2017-02-19T03:36:52.957Z,1014.2
2017-02-19T03:37:52.936Z,1014.19
2017-02-19T03:38:52.916Z,1014.16
2017-02-19T03:39:52.893Z,1014.1
2017-02-19T03:40:52.876Z,1014.12
2017-02-19T03:41:52.854Z,1014.1
2017-02-19T03:42:52.831Z,1014.07
2017-02-19T03:43:52.820Z,1014.06
2017-02-19T03:44:52.787Z,1014.12
2017-02-19T03:45:52.767Z,1014.14
2017-02-19T03:46:52.747Z,1014.16
2017-02-19T03:47:52.724Z,1014.16
2017-02-19T03:48:52.705Z,1014.19
2017-02-19T03:49:52.682Z,1014.22
2017-02-19T03:50:52.665Z,1014.2
2017-02-19T03:51:52.641Z,1014.18
2017-02-19T03:52:52.621Z,1014.15
2017-02-19T03:53:52.601Z,1014.17
2017-02-19T03:54:52.630Z,1014.12
2017-02-19T03:55:52.558Z,1014.15
2017-02-19T03:56:52.537Z,1014.18
2017-02-19T03:57:52.521Z,1014.16
2017-02-19T03:58:52.496Z,1014.15
2017-02-19T03:59:52.474Z,1014.11
2017-02-19T04:00:52.454Z,1014.12
2017-02-19T04:01:52.433Z,1014.1
2017-02-19T04:02:52.412Z,1014.14
2017-02-19T04:03:52.392Z,1014.1
2017-02-19T04:04:52.371Z,1014.07
2017-02-19T04:05:52.352Z,1014.07
2017-02-19T04:06:52.330Z,1014.02
2017-02-19T04:07:52.310Z,1013.99
2017-02-19T04:08:52.289Z,1013.99
2017-02-19T04:09:52.271Z,1013.99
2017-02-19T04:10:52.247Z,1013.98
2017-02-19T04:11:52.227Z,1013.98
2017-02-19T04:12:52.206Z,1014.01
2017-02-19T04:13:52.235Z,1014.04
2017-02-19T04:14:52.164Z,1014.02
2017-02-19T04:15:52.144Z,1014.02
2017-02-19T04:16:52.123Z,1014.06
2017-02-19T04:17:52.103Z,1014.04
2017-02-19T04:18:52.084Z,1014.06
2017-02-19T04:19:52.064Z,1014.03
2017-02-19T04:20:52.043Z,1014.07
2017-02-19T04:21:52.021Z,1014.03
2017-02-19T04:22:52.001Z,1014
2017-02-19T04:23:51.981Z,1013.98
2017-02-19T04:24:51.959Z,1013.97
2017-02-19T04:25:51.948Z,1013.98
2017-02-19T04:26:51.927Z,1013.92
2017-02-19T04:27:51.894Z,1013.93
2017-02-19T04:28:51.875Z,1013.87
2017-02-19T04:29:51.854Z,1013.91
2017-02-19T04:30:51.833Z,1013.95
2017-02-19T04:31:51.812Z,1013.9
2017-02-19T04:32:51.795Z,1013.91
2017-02-19T04:33:51.973Z,1013.87
2017-02-19T04:34:51.751Z,1013.9
2017-02-19T04:35:51.730Z,1013.87
2017-02-19T04:36:51.709Z,1013.86
2017-02-19T04:37:51.690Z,1013.87
2017-02-19T04:38:51.667Z,1013.82
2017-02-19T04:39:51.648Z,1013.79
2017-02-19T04:40:51.627Z,1013.79
2017-02-19T04:41:51.605Z,1013.79
2017-02-19T04:42:51.584Z,1013.81
2017-02-19T04:43:51.566Z,1013.73
2017-02-19T04:44:51.545Z,1013.7
2017-02-19T04:45:51.527Z,1013.69
2017-02-19T04:46:51.515Z,1013.7
2017-02-19T04:47:51.481Z,1013.7
2017-02-19T04:48:51.465Z,1013.63
2017-02-19T04:49:51.470Z,1013.6
2017-02-19T04:50:51.419Z,1013.65
2017-02-19T04:51:51.400Z,1013.64
2017-02-19T04:52:51.378Z,1013.6
2017-02-19T04:53:51.356Z,1013.61
2017-02-19T04:54:51.338Z,1013.64
2017-02-19T04:55:51.317Z,1013.6
2017-02-19T04:56:51.295Z,1013.64
2017-02-19T04:57:51.276Z,1013.66
2017-02-19T04:58:51.254Z,1013.63
2017-02-19T04:59:51.233Z,1013.66
2017-02-19T05:00:51.212Z,1013.65
2017-02-19T05:01:51.191Z,1013.66
2017-02-19T05:02:51.171Z,1013.65
2017-02-19T05:03:51.150Z,1013.67
2017-02-19T05:04:51.132Z,1013.69
2017-02-19T05:05:51.107Z,1013.65
2017-02-19T05:06:51.089Z,1013.64
2017-02-19T05:07:51.067Z,1013.6
2017-02-19T05:08:51.045Z,1013.58
2017-02-19T05:09:51.025Z,1013.49
2017-02-19T05:10:51.005Z,1013.54
2017-02-19T05:11:50.983Z,1013.46
2017-02-19T05:12:50.963Z,1013.53
2017-02-19T05:13:50.942Z,1013.53
2017-02-19T05:14:50.925Z,1013.53
2017-02-19T05:15:50.902Z,1013.54
2017-02-19T05:16:50.881Z,1013.53
2017-02-19T05:17:50.861Z,1013.55
2017-02-19T05:18:50.844Z,1013.49
2017-02-19T05:19:50.819Z,1013.57
2017-02-19T05:20:50.798Z,1013.57
2017-02-19T05:21:50.778Z,1013.55
2017-02-19T05:22:50.783Z,1013.59
2017-02-19T05:23:50.735Z,1013.59
2017-02-19T05:24:50.716Z,1013.57
2017-02-19T05:25:50.699Z,1013.59
2017-02-19T05:26:50.675Z,1013.55
2017-02-19T05:27:50.656Z,1013.59
2017-02-19T05:28:50.636Z,1013.56
2017-02-19T05:29:50.614Z,1013.54
2017-02-19T05:30:50.592Z,1013.45
2017-02-19T05:31:50.572Z,1013.46
2017-02-19T05:32:50.551Z,1013.49
2017-02-19T05:33:50.530Z,1013.39
2017-02-19T05:34:50.510Z,1013.4
2017-02-19T05:35:50.490Z,1013.38
2017-02-19T05:36:50.469Z,1013.33
2017-02-19T05:37:50.450Z,1013.3
2017-02-19T05:38:50.431Z,1013.25
2017-02-19T05:39:50.409Z,1013.23
2017-02-19T05:40:50.388Z,1013.22
2017-02-19T05:41:50.367Z,1013.23
2017-02-19T05:42:50.347Z,1013.22
2017-02-19T05:43:50.328Z,1013.18
2017-02-19T05:44:50.308Z,1013.26
2017-02-19T05:45:50.286Z,1013.27
2017-02-19T05:46:50.266Z,1013.28
2017-02-19T05:47:50.247Z,1013.28
2017-02-19T05:48:50.223Z,1013.23
2017-02-19T05:49:50.204Z,1013.28
2017-02-19T05:50:50.188Z,1013.27
2017-02-19T05:51:50.169Z,1013.28
2017-02-19T05:52:50.143Z,1013.27
2017-02-19T05:53:50.122Z,1013.27
2017-02-19T05:54:50.103Z,1013.3
2017-02-19T05:55:50.080Z,1013.3
2017-02-19T05:56:50.058Z,1013.27
2017-02-19T05:57:50.038Z,1013.26
2017-02-19T05:58:50.018Z,1013.25
2017-02-19T05:59:49.997Z,1013.26
2017-02-19T06:00:49.976Z,1013.23
2017-02-19T06:01:49.956Z,1013.27
2017-02-19T06:02:49.936Z,1013.19
2017-02-19T06:03:49.914Z,1013.16
2017-02-19T06:04:49.893Z,1013.15
2017-02-19T06:05:49.874Z,1013.16
2017-02-19T06:06:49.854Z,1013.16
2017-02-19T06:07:49.833Z,1013.13
2017-02-19T06:08:49.812Z,1013.12
2017-02-19T06:09:49.791Z,1013.13
2017-02-19T06:10:49.770Z,1013.11
2017-02-19T06:11:49.750Z,1013.05
2017-02-19T06:12:49.730Z,1013.03
2017-02-19T06:13:49.708Z,1013.07
2017-02-19T06:14:49.688Z,1013.06
2017-02-19T06:15:49.668Z,1013.05
2017-02-19T06:16:49.647Z,1013.06
2017-02-19T06:17:49.625Z,1013.05
2017-02-19T06:18:49.609Z,1012.98
2017-02-19T06:19:49.586Z,1012.98
2017-02-19T06:20:49.567Z,1013.02
2017-02-19T06:21:49.542Z,1012.98
2017-02-19T06:22:49.523Z,1012.98
2017-02-19T06:23:49.502Z,1013
2017-02-19T06:24:49.480Z,1012.97
2017-02-19T06:25:49.459Z,1013.04
2017-02-19T06:26:49.443Z,1013.05
2017-02-19T06:27:49.419Z,1013.03
2017-02-19T06:28:49.398Z,1013.04
2017-02-19T06:29:49.379Z,1013.02
2017-02-19T06:30:49.358Z,1013.07
2017-02-19T06:31:49.337Z,1013.07
2017-02-19T06:32:49.315Z,1013.06
2017-02-19T06:33:49.293Z,1013.1
2017-02-19T06:34:49.274Z,1013.08
2017-02-19T06:35:49.252Z,1013.09
2017-02-19T06:36:49.232Z,1013.08
2017-02-19T06:37:49.212Z,1013.15
2017-02-19T06:38:49.191Z,1013.1
2017-02-19T06:39:49.170Z,1013.1
2017-02-19T06:40:49.150Z,1013.11
2017-02-19T06:41:49.130Z,1013.07
2017-02-19T06:42:49.110Z,1013.12
2017-02-19T06:43:49.092Z,1013.06
2017-02-19T06:44:49.069Z,1013.03
2017-02-19T06:45:49.047Z,1013.04
2017-02-19T06:46:49.026Z,1013.02
2017-02-19T06:47:49.006Z,1013
2017-02-19T06:48:48.985Z,1013.01
2017-02-19T06:49:48.975Z,1012.92
2017-02-19T06:50:48.944Z,1012.91
2017-02-19T06:51:48.925Z,1012.99
2017-02-19T06:52:48.906Z,1012.98
2017-02-19T06:53:48.883Z,1013
2017-02-19T06:54:48.863Z,1013.03
2017-02-19T06:55:48.841Z,1013.04
2017-02-19T06:56:48.821Z,1013.08
2017-02-19T06:57:48.801Z,1013.13
2017-02-19T06:58:48.799Z,1013.09
2017-02-19T06:59:48.762Z,1013.11
2017-02-19T07:00:48.741Z,1013.16
2017-02-19T07:01:48.770Z,1013.19
2017-02-19T07:02:48.709Z,1013.21
2017-02-19T07:03:48.680Z,1013.25
2017-02-19T07:04:48.672Z,1013.22
2017-02-19T07:05:48.639Z,1013.23
2017-02-19T07:06:48.619Z,1013.19
2017-02-19T07:07:48.600Z,1013.23
2017-02-19T07:08:48.578Z,1013.22
2017-02-19T07:09:48.760Z,1013.21
2017-02-19T07:10:48.545Z,1013.25
2017-02-19T07:11:48.527Z,1013.27
2017-02-19T07:12:48.498Z,1013.28
2017-02-19T07:13:48.488Z,1013.23
2017-02-19T07:14:48.457Z,1013.25
2017-02-19T07:15:48.437Z,1013.26
2017-02-19T07:16:48.418Z,1013.28
2017-02-19T07:17:48.397Z,1013.28
2017-02-19T07:18:48.381Z,1013.31
2017-02-19T07:19:48.357Z,1013.31
2017-02-19T07:20:48.337Z,1013.3
2017-02-19T07:21:48.320Z,1013.23
2017-02-19T07:22:48.296Z,1013.26
2017-02-19T07:23:48.274Z,1013.23
2017-02-19T07:24:48.259Z,1013.18
2017-02-19T07:25:48.236Z,1013.19
2017-02-19T07:26:48.214Z,1013.17
2017-02-19T07:27:48.196Z,1013.17
2017-02-19T07:28:48.174Z,1013.2
2017-02-19T07:29:48.155Z,1013.18
2017-02-19T07:30:48.139Z,1013.18
2017-02-19T07:31:48.116Z,1013.19
2017-02-19T07:32:48.095Z,1013.16
2017-02-19T07:33:48.076Z,1013.15
2017-02-19T07:34:48.055Z,1013.12
2017-02-19T07:35:48.039Z,1013.13
2017-02-19T07:36:48.017Z,1013.1
2017-02-19T07:37:47.995Z,1013.14
2017-02-19T07:38:47.981Z,1013.08
2017-02-19T07:39:47.960Z,1013.1
2017-02-19T07:40:47.942Z,1013.12
2017-02-19T07:41:47.918Z,1013.07
2017-02-19T07:42:47.900Z,1013.09
2017-02-19T07:43:47.878Z,1013.08
2017-02-19T07:44:47.862Z,1013.05
2017-02-19T07:45:47.845Z,1013.07
2017-02-19T07:46:47.819Z,1013.04
2017-02-19T07:47:47.798Z,1013.04
2017-02-19T07:48:47.784Z,1013.03
2017-02-19T07:49:47.760Z,1013.01
2017-02-19T07:50:47.740Z,1013.03
2017-02-19T07:51:47.722Z,1013.04
2017-02-19T07:52:47.702Z,1013.1
2017-02-19T07:53:47.683Z,1013.1
2017-02-19T07:54:47.662Z,1013.07
2017-02-19T07:55:47.649Z,1013.12
2017-02-19T07:56:47.627Z,1013.06
2017-02-19T07:57:47.603Z,1013.03
2017-02-19T07:58:47.584Z,1013.07
2017-02-19T07:59:47.566Z,1013.05
2017-02-19T08:00:47.547Z,1013.04
2017-02-19T08:01:47.527Z,1013.04
2017-02-19T08:02:47.518Z,1013.01
2017-02-19T08:03:47.488Z,1013.02
2017-02-19T08:04:47.471Z,1013.06
2017-02-19T08:05:47.455Z,1013.1
2017-02-19T08:06:47.432Z,1013.08
2017-02-19T08:07:47.427Z,1013.07
2017-02-19T08:08:47.395Z,1013.03
2017-02-19T08:09:47.378Z,1013.02
2017-02-19T08:10:47.364Z,1012.99
2017-02-19T08:11:47.337Z,1012.99
2017-02-19T08:12:47.317Z,1012.98
2017-02-19T08:13:47.306Z,1012.95
2017-02-19T08:14:47.281Z,1012.97
2017-02-19T08:15:47.263Z,1013.01
2017-02-19T08:16:47.243Z,1012.96
2017-02-19T08:17:47.225Z,1013.01
2017-02-19T08:18:47.210Z,1013.03
2017-02-19T08:19:47.188Z,1013
2017-02-19T08:20:47.172Z,1013.04
2017-02-19T08:21:47.150Z,1013.01
2017-02-19T08:22:47.136Z,1013.06
2017-02-19T08:23:47.113Z,1013.02
2017-02-19T08:24:47.097Z,1013.1
2017-02-19T08:25:47.079Z,1013.03
2017-02-19T08:26:47.057Z,1013
2017-02-19T08:27:47.040Z,1013.02
2017-02-19T08:28:47.022Z,1012.98
2017-02-19T08:29:47.003Z,1012.95
2017-02-19T08:30:46.985Z,1012.95
2017-02-19T08:31:46.967Z,1013
2017-02-19T08:32:46.947Z,1012.96
2017-02-19T08:33:46.930Z,1012.99
2017-02-19T08:34:46.914Z,1013
2017-02-19T08:35:46.897Z,1013.03
2017-02-19T08:36:46.876Z,1012.9
2017-02-19T08:37:46.858Z,1012.9
2017-02-19T08:38:46.840Z,1012.92
2017-02-19T08:39:46.823Z,1012.91
2017-02-19T08:40:46.803Z,1012.9
2017-02-19T08:41:46.785Z,1012.89
2017-02-19T08:42:46.768Z,1012.8
2017-02-19T08:43:46.749Z,1012.81
2017-02-19T08:44:46.730Z,1012.81
2017-02-19T08:45:46.713Z,1012.76
2017-02-19T08:46:46.696Z,1012.83
2017-02-19T08:47:46.678Z,1012.78
2017-02-19T08:48:46.660Z,1012.77
2017-02-19T08:49:46.641Z,1012.76
2017-02-19T08:50:46.622Z,1012.78
2017-02-19T08:51:46.605Z,1012.85
2017-02-19T08:52:46.588Z,1012.84
2017-02-19T08:53:46.577Z,1012.93
2017-02-19T08:54:46.548Z,1012.87
2017-02-19T08:55:46.531Z,1012.9
2017-02-19T08:56:46.514Z,1012.95
2017-02-19T08:57:46.497Z,1012.92
2017-02-19T08:58:46.481Z,1012.98
2017-02-19T08:59:46.459Z,1013
2017-02-19T09:00:46.444Z,1012.94
2017-02-19T09:01:46.423Z,1012.97
2017-02-19T09:02:46.438Z,1013.07
2017-02-19T09:03:46.391Z,1012.98
2017-02-19T09:04:46.370Z,1012.97
2017-02-19T09:05:46.349Z,1012.97
2017-02-19T09:06:46.332Z,1012.95
2017-02-19T09:07:46.313Z,1012.96
2017-02-19T09:08:46.297Z,1012.96
2017-02-19T09:09:46.277Z,1012.96
2017-02-19T09:10:46.261Z,1012.9
2017-02-19T09:11:46.242Z,1012.91
2017-02-19T09:12:46.222Z,1012.94
2017-02-19T09:13:46.206Z,1012.97
2017-02-19T09:14:46.188Z,1012.99
2017-02-19T09:15:46.171Z,1012.97
2017-02-19T09:16:46.151Z,1013.01
2017-02-19T09:17:46.134Z,1012.99
2017-02-19T09:18:46.116Z,1013
2017-02-19T09:19:46.099Z,1012.97
2017-02-19T09:20:46.080Z,1012.99
2017-02-19T09:21:46.062Z,1012.97
2017-02-19T09:22:46.045Z,1012.92
2017-02-19T09:23:46.027Z,1012.91
2017-02-19T09:24:46.010Z,1012.91
2017-02-19T09:25:45.992Z,1012.93
2017-02-19T09:26:45.974Z,1012.91
2017-02-19T09:27:45.957Z,1012.95
2017-02-19T09:28:45.938Z,1012.94
2017-02-19T09:29:45.924Z,1012.94
2017-02-19T09:30:45.904Z,1012.93
2017-02-19T09:31:45.885Z,1012.96
2017-02-19T09:32:45.867Z,1012.87
2017-02-19T09:33:45.849Z,1012.96
2017-02-19T09:34:45.831Z,1012.83
2017-02-19T09:35:45.814Z,1012.77
2017-02-19T09:36:45.797Z,1012.74
2017-02-19T09:37:45.778Z,1012.71
2017-02-19T09:38:45.761Z,1012.72
2017-02-19T09:39:45.744Z,1012.68
2017-02-19T09:40:45.730Z,1012.68
2017-02-19T09:41:45.708Z,1012.73
2017-02-19T09:42:45.717Z,1012.67
2017-02-19T09:43:45.675Z,1012.71
2017-02-19T09:44:45.656Z,1012.74
2017-02-19T09:45:45.639Z,1012.67
2017-02-19T09:46:45.661Z,1012.71
2017-02-19T09:47:45.607Z,1012.72
2017-02-19T09:48:45.591Z,1012.64
2017-02-19T09:49:45.566Z,1012.64
2017-02-19T09:50:45.548Z,1012.64
2017-02-19T09:51:45.530Z,1012.68
2017-02-19T09:52:45.513Z,1012.65
2017-02-19T09:53:45.499Z,1012.72
2017-02-19T09:54:45.478Z,1012.66
2017-02-19T09:55:45.460Z,1012.65
2017-02-19T09:56:45.442Z,1012.79
2017-02-19T09:57:45.426Z,1012.71
2017-02-19T09:58:45.407Z,1012.65
2017-02-19T09:59:45.388Z,1012.68
2017-02-19T10:00:45.372Z,1012.64
2017-02-19T10:01:45.353Z,1012.61
2017-02-19T10:02:45.334Z,1012.52
2017-02-19T10:03:45.318Z,1012.47
2017-02-19T10:04:45.300Z,1012.48
2017-02-19T10:05:45.281Z,1012.42
2017-02-19T10:06:45.265Z,1012.38
2017-02-19T10:07:45.245Z,1012.43
2017-02-19T10:08:45.231Z,1012.42
2017-02-19T10:09:45.211Z,1012.43
2017-02-19T10:10:45.194Z,1012.47
2017-02-19T10:11:45.198Z,1012.45
2017-02-19T10:12:45.158Z,1012.45
2017-02-19T10:13:45.140Z,1012.42
2017-02-19T10:14:45.124Z,1012.37
2017-02-19T10:15:45.114Z,1012.46
2017-02-19T10:16:45.092Z,1012.43
2017-02-19T10:17:45.072Z,1012.43
2017-02-19T10:18:45.057Z,1012.38
2017-02-19T10:19:45.039Z,1012.47
2017-02-19T10:20:45.022Z,1012.38
2017-02-19T10:21:45.007Z,1012.34
2017-02-19T10:22:44.987Z,1012.39
2017-02-19T10:23:44.969Z,1012.43
2017-02-19T10:24:44.953Z,1012.43
2017-02-19T10:25:44.937Z,1012.5
2017-02-19T10:26:44.923Z,1012.46
2017-02-19T10:27:44.905Z,1012.5
2017-02-19T10:28:44.889Z,1012.54
2017-02-19T10:29:44.875Z,1012.57
2017-02-19T10:30:44.857Z,1012.46
2017-02-19T10:31:44.841Z,1012.41
2017-02-19T10:32:44.825Z,1012.39
2017-02-19T10:33:44.809Z,1012.47
2017-02-19T10:34:45.006Z,1012.46
2017-02-19T10:35:44.781Z,1012.41
2017-02-19T10:36:44.764Z,1012.43
2017-02-19T10:37:44.751Z,1012.45
2017-02-19T10:38:44.737Z,1012.38
2017-02-19T10:39:44.722Z,1012.44
2017-02-19T10:40:44.707Z,1012.38
2017-02-19T10:41:44.705Z,1012.51
2017-02-19T10:42:44.677Z,1012.44
2017-02-19T10:43:44.681Z,1012.45
2017-02-19T10:44:44.647Z,1012.45
2017-02-19T10:45:44.651Z,1012.49
2017-02-19T10:46:44.624Z,1012.4
2017-02-19T10:47:44.605Z,1012.38
2017-02-19T10:48:44.588Z,1012.33
2017-02-19T10:49:44.575Z,1012.33
2017-02-19T10:50:44.561Z,1012.34
2017-02-19T10:51:44.545Z,1012.31
2017-02-19T10:52:44.530Z,1012.31
2017-02-19T10:53:44.515Z,1012.22
2017-02-19T10:54:44.502Z,1012.25
2017-02-19T10:55:44.485Z,1012.27
2017-02-19T10:56:44.470Z,1012.27
2017-02-19T10:57:44.455Z,1012.21
2017-02-19T10:58:44.439Z,1012.22
2017-02-19T10:59:44.434Z,1012.21
2017-02-19T11:00:44.410Z,1012.23
2017-02-19T11:01:44.395Z,1012.23
2017-02-19T11:02:44.381Z,1012.26
2017-02-19T11:03:44.415Z,1012.25
2017-02-19T11:04:44.350Z,1012.3
2017-02-19T11:05:44.336Z,1012.43
2017-02-19T11:06:44.321Z,1012.37
2017-02-19T11:07:44.302Z,1012.37
2017-02-19T11:08:44.295Z,1012.42
2017-02-19T11:09:44.273Z,1012.42
2017-02-19T11:10:44.254Z,1012.37
2017-02-19T11:11:44.238Z,1012.38
2017-02-19T11:12:44.234Z,1012.3
2017-02-19T11:13:44.211Z,1012.27
2017-02-19T11:14:44.192Z,1012.25
2017-02-19T11:15:44.178Z,1012.19
2017-02-19T11:16:44.160Z,1012.22
2017-02-19T11:17:44.144Z,1012.15
2017-02-19T11:18:44.127Z,1012.16
2017-02-19T11:19:44.113Z,1012.18
2017-02-19T11:20:44.092Z,1012.1
2017-02-19T11:21:44.077Z,1012.13
2017-02-19T11:22:44.061Z,1012.17
2017-02-19T11:23:44.044Z,1012.17
2017-02-19T11:24:44.026Z,1012.14
2017-02-19T11:25:44.012Z,1012.14
2017-02-19T11:26:43.994Z,1012.1
2017-02-19T11:27:43.977Z,1012.1
2017-02-19T11:28:43.959Z,1012.04
2017-02-19T11:29:43.947Z,1012.03
2017-02-19T11:30:43.926Z,1012.02
2017-02-19T11:31:43.911Z,1012
2017-02-19T11:32:43.893Z,1012
2017-02-19T11:33:43.877Z,1011.99
2017-02-19T11:34:43.860Z,1012.06
2017-02-19T11:35:43.843Z,1012.05
2017-02-19T11:36:43.825Z,1012.03
2017-02-19T11:37:43.810Z,1012.03
2017-02-19T11:38:43.799Z,1012.03
2017-02-19T11:39:43.776Z,1012.02
2017-02-19T11:40:43.758Z,1011.97
2017-02-19T11:41:43.742Z,1011.94
2017-02-19T11:42:43.722Z,1011.96
2017-02-19T11:43:43.705Z,1011.94
2017-02-19T11:44:43.690Z,1011.96
2017-02-19T11:45:43.672Z,1012
2017-02-19T11:46:43.657Z,1011.95
2017-02-19T11:47:43.636Z,1011.94
2017-02-19T11:48:43.620Z,1011.94
2017-02-19T11:49:43.603Z,1011.9
2017-02-19T11:50:43.589Z,1011.9
2017-02-19T11:51:43.572Z,1011.92
2017-02-19T11:52:43.551Z,1011.94
2017-02-19T11:53:43.533Z,1011.89
2017-02-19T11:54:43.517Z,1011.89
2017-02-19T11:55:43.500Z,1011.96
2017-02-19T11:56:43.482Z,1011.95
2017-02-19T11:57:43.463Z,1011.94
2017-02-19T11:58:43.445Z,1011.91
2017-02-19T11:59:43.430Z,1011.89
2017-02-19T12:00:43.413Z,1011.88
2017-02-19T12:01:43.395Z,1011.83
2017-02-19T12:02:43.378Z,1011.86
2017-02-19T12:03:43.359Z,1011.82
2017-02-19T12:04:43.343Z,1011.84
2017-02-19T12:05:43.327Z,1011.86
2017-02-19T12:06:43.307Z,1011.87
2017-02-19T12:07:43.294Z,1011.87
2017-02-19T12:08:43.272Z,1011.88
2017-02-19T12:09:43.255Z,1011.85